createdAt,value
2018-05-02T00:00:56.581Z,1.80
2018-05-02T00:01:59.061Z,1.70
2018-05-02T00:03:01.573Z,1.77
2018-05-02T00:04:04.057Z,1.80
2018-05-02T00:05:06.527Z,1.97
2018-05-02T00:06:09.013Z,1.70
2018-05-02T00:07:11.496Z,1.70
2018-05-02T00:08:14.013Z,1.93
2018-05-02T00:09:16.504Z,1.80
2018-05-02T00:10:18.988Z,1.60
2018-05-02T00:11:21.455Z,1.90
2018-05-02T00:12:23.941Z,1.57
2018-05-02T00:13:26.440Z,1.77
2018-05-02T00:14:28.921Z,1.70
2018-05-02T00:15:31.411Z,1.63
2018-05-02T00:16:33.881Z,1.70
2018-05-02T00:17:36.379Z,1.90
2018-05-02T00:18:38.899Z,1.83
2018-05-02T00:19:41.411Z,1.60
2018-05-02T00:20:43.897Z,1.60
2018-05-02T00:21:46.389Z,1.80
2018-05-02T00:22:48.891Z,1.70
2018-05-02T00:23:51.398Z,1.97
2018-05-02T00:24:53.899Z,1.60
2018-05-02T00:25:56.375Z,1.63
2018-05-02T00:26:58.922Z,1.60
2018-05-02T00:28:01.399Z,1.77
2018-05-02T00:29:03.937Z,1.87
2018-05-02T00:30:06.420Z,1.50
2018-05-02T00:31:08.959Z,1.70
2018-05-02T00:32:11.449Z,1.33
2018-05-02T00:33:13.947Z,1.50
2018-05-02T00:34:16.453Z,1.63
2018-05-02T00:35:18.936Z,1.63
2018-05-02T00:36:21.420Z,1.70
2018-05-02T00:37:23.923Z,1.80
2018-05-02T00:38:26.435Z,1.90
2018-05-02T00:39:28.949Z,1.20
2018-05-02T00:40:31.422Z,1.80
2018-05-02T00:41:33.908Z,1.70
2018-05-02T00:42:36.402Z,1.30
2018-05-02T00:43:38.877Z,1.50
2018-05-02T00:44:41.376Z,1.83
2018-05-02T00:45:43.868Z,1.37
2018-05-02T00:46:46.356Z,1.60
2018-05-02T00:47:48.858Z,1.80
2018-05-02T00:49:03.311Z,1.90
2018-05-02T00:50:05.813Z,1.80
2018-05-02T00:51:08.316Z,1.57
2018-05-02T00:52:10.809Z,1.90
2018-05-02T00:53:13.292Z,1.40
2018-05-02T00:54:15.797Z,1.50
2018-05-02T00:55:18.287Z,1.53
2018-05-02T00:56:20.765Z,1.80
2018-05-02T00:57:23.264Z,1.90
2018-05-02T00:58:25.753Z,1.70
2018-05-02T00:59:28.261Z,1.70
2018-05-02T01:00:30.775Z,1.60
2018-05-02T01:01:33.276Z,1.60
2018-05-02T01:02:35.779Z,1.83
2018-05-02T01:03:38.272Z,1.40
2018-05-02T01:04:40.811Z,1.60
2018-05-02T01:05:43.296Z,1.70
2018-05-02T01:06:45.781Z,1.73
2018-05-02T01:07:48.291Z,1.67
2018-05-02T01:08:50.850Z,1.50
2018-05-02T01:09:53.342Z,1.47
2018-05-02T01:10:55.864Z,1.57
2018-05-02T01:11:58.376Z,1.60
2018-05-02T01:13:00.868Z,1.60
2018-05-02T01:14:03.350Z,1.90
2018-05-02T01:15:05.860Z,1.73
2018-05-02T01:16:08.362Z,1.53
2018-05-02T01:17:10.853Z,1.27
2018-05-02T01:18:13.341Z,1.40
2018-05-02T01:19:15.830Z,1.50
2018-05-02T01:20:18.344Z,1.53
2018-05-02T01:21:20.840Z,1.60
2018-05-02T01:22:23.343Z,1.80
2018-05-02T01:23:25.850Z,1.83
2018-05-02T01:24:28.363Z,1.80
2018-05-02T01:25:30.887Z,1.70
2018-05-02T01:26:33.354Z,1.53
2018-05-02T01:27:35.840Z,1.80
2018-05-02T01:28:38.363Z,1.93
2018-05-02T01:29:40.925Z,1.60
2018-05-02T01:30:43.484Z,1.30
2018-05-02T01:31:45.986Z,1.50
2018-05-02T01:32:48.463Z,1.50
2018-05-02T01:33:50.934Z,1.60
2018-05-02T01:34:53.432Z,1.40
2018-05-02T01:35:55.937Z,1.40
2018-05-02T01:36:58.425Z,1.67
2018-05-02T01:38:00.931Z,1.60
2018-05-02T01:39:03.400Z,1.30
2018-05-02T01:40:05.899Z,1.40
2018-05-02T01:41:08.390Z,1.70
2018-05-02T01:42:10.884Z,1.77
2018-05-02T01:43:13.369Z,1.40
2018-05-02T01:44:15.864Z,2.03
2018-05-02T01:45:18.345Z,1.13
2018-05-02T01:46:20.845Z,1.40
2018-05-02T01:47:23.330Z,1.40
2018-05-02T01:48:25.818Z,1.30
2018-05-02T01:49:28.326Z,1.30
2018-05-02T01:50:30.813Z,1.57
2018-05-02T01:51:33.320Z,1.60
2018-05-02T01:52:35.814Z,1.53
2018-05-02T01:53:38.334Z,1.40
2018-05-02T01:54:40.825Z,1.50
2018-05-02T01:55:43.310Z,1.63
2018-05-02T01:56:45.811Z,1.17
2018-05-02T01:57:48.315Z,1.30
2018-05-02T01:58:50.794Z,1.63
2018-05-02T01:59:53.258Z,1.50
2018-05-02T02:00:55.779Z,1.73
2018-05-02T02:01:58.342Z,1.27
2018-05-02T02:03:00.899Z,1.20
2018-05-02T02:04:03.393Z,1.40
2018-05-02T02:05:05.877Z,1.70
2018-05-02T02:06:08.384Z,1.20
2018-05-02T02:07:10.903Z,1.37
2018-05-02T02:08:13.413Z,1.40
2018-05-02T02:09:15.882Z,1.20
2018-05-02T02:10:18.365Z,1.53
2018-05-02T02:11:20.852Z,1.27
2018-05-02T02:12:23.373Z,1.33
2018-05-02T02:13:25.842Z,1.40
2018-05-02T02:14:28.329Z,1.37
2018-05-02T02:15:30.835Z,1.30
2018-05-02T02:16:33.320Z,1.60
2018-05-02T02:17:35.843Z,1.30
2018-05-02T02:18:38.351Z,1.60
2018-05-02T02:19:40.837Z,1.40
2018-05-02T02:20:43.307Z,1.47
2018-05-02T02:21:45.818Z,1.20
2018-05-02T02:22:48.327Z,1.60
2018-05-02T02:23:50.831Z,1.40
2018-05-02T02:24:53.336Z,1.20
2018-05-02T02:25:55.892Z,1.83
2018-05-02T02:26:58.369Z,1.30
2018-05-02T02:28:00.859Z,1.37
2018-05-02T02:29:03.343Z,1.30
2018-05-02T02:30:05.837Z,1.70
2018-05-02T02:31:08.314Z,1.40
2018-05-02T02:32:10.817Z,1.60
2018-05-02T02:33:13.320Z,1.40
2018-05-02T02:34:15.811Z,1.30
2018-05-02T02:35:18.300Z,1.50
2018-05-02T02:36:20.804Z,1.20
2018-05-02T02:37:23.315Z,1.43
2018-05-02T02:38:25.821Z,1.43
2018-05-02T02:39:28.297Z,1.20
2018-05-02T02:40:30.787Z,1.57
2018-05-02T02:41:33.295Z,1.40
2018-05-02T02:42:35.766Z,1.20
2018-05-02T02:43:38.360Z,1.30
2018-05-02T02:44:40.933Z,1.40
2018-05-02T02:45:43.417Z,1.67
2018-05-02T02:46:45.906Z,1.40
2018-05-02T02:47:48.395Z,1.37
2018-05-02T02:48:50.905Z,1.50
2018-05-02T02:49:53.446Z,1.20
2018-05-02T02:50:56.016Z,1.40
2018-05-02T02:51:58.449Z,1.60
2018-05-02T02:53:01.025Z,1.40
2018-05-02T02:54:03.528Z,1.30
2018-05-02T02:55:06.032Z,1.47
2018-05-02T02:56:08.601Z,1.30
2018-05-02T02:57:11.088Z,1.40
2018-05-02T02:58:13.592Z,1.40
2018-05-02T02:59:16.103Z,1.00
2018-05-02T03:01:36.578Z,1.40
2018-05-02T03:02:39.084Z,1.30
2018-05-02T03:03:41.587Z,1.73
2018-05-02T03:04:44.094Z,1.60
2018-05-02T03:05:46.592Z,1.43
2018-05-02T03:06:49.080Z,1.50
2018-05-02T03:07:51.550Z,1.40
2018-05-02T03:08:54.051Z,1.10
2018-05-02T03:09:56.552Z,1.20
2018-05-02T03:10:59.082Z,1.30
2018-05-02T03:12:01.655Z,1.30
2018-05-02T03:13:04.201Z,1.20
2018-05-02T03:14:06.708Z,1.00
2018-05-02T03:15:09.211Z,1.20
2018-05-02T03:16:11.743Z,1.30
2018-05-02T03:17:14.237Z,1.40
2018-05-02T03:18:16.730Z,1.30
2018-05-02T03:19:19.252Z,1.17
2018-05-02T03:20:21.742Z,1.20
2018-05-02T03:21:24.222Z,1.70
2018-05-02T03:22:26.694Z,1.30
2018-05-02T03:23:29.180Z,1.20
2018-05-02T03:24:31.670Z,1.20
2018-05-02T03:25:34.139Z,1.30
2018-05-02T03:26:36.626Z,1.20
2018-05-02T03:27:39.127Z,1.50
2018-05-02T03:28:41.612Z,1.33
2018-05-02T03:29:44.152Z,1.30
2018-05-02T03:30:46.637Z,1.30
2018-05-02T03:31:49.159Z,1.27
2018-05-02T03:32:51.659Z,1.37
2018-05-02T03:33:54.145Z,1.23
2018-05-02T03:34:56.638Z,1.20
2018-05-02T03:35:59.128Z,1.33
2018-05-02T03:37:01.595Z,1.30
2018-05-02T03:38:04.108Z,1.43
2018-05-02T03:39:06.600Z,1.27
2018-05-02T03:40:09.124Z,1.07
2018-05-02T03:41:11.691Z,1.13
2018-05-02T03:42:14.180Z,1.40
2018-05-02T03:43:16.683Z,1.23
2018-05-02T03:44:19.246Z,1.50
2018-05-02T03:45:21.761Z,1.20
2018-05-02T03:46:24.266Z,1.33
2018-05-02T03:47:26.763Z,1.07
2018-05-02T03:48:29.238Z,1.50
2018-05-02T03:49:31.702Z,1.53
2018-05-02T03:50:34.204Z,1.37
2018-05-02T03:51:36.674Z,1.20
2018-05-02T03:52:39.196Z,1.20
2018-05-02T03:53:41.677Z,1.40
2018-05-02T03:54:44.155Z,1.13
2018-05-02T03:55:46.642Z,1.43
2018-05-02T03:56:49.133Z,1.20
2018-05-02T03:57:51.608Z,1.20
2018-05-02T03:58:54.091Z,1.20
2018-05-02T04:00:08.278Z,0.90
2018-05-02T04:01:22.550Z,1.37
2018-05-02T04:02:36.884Z,1.10
2018-05-02T04:03:51.151Z,1.20
2018-05-02T04:05:05.529Z,1.30
2018-05-02T04:06:15.522Z,1.23
2018-05-02T04:07:18.006Z,1.30
2018-05-02T04:08:20.496Z,1.40
2018-05-02T04:09:22.962Z,1.53
2018-05-02T04:10:25.444Z,1.23
2018-05-02T04:11:27.965Z,1.40
2018-05-02T04:12:30.540Z,1.40
2018-05-02T04:13:33.006Z,1.10
2018-05-02T04:14:35.496Z,1.17
2018-05-02T04:15:38.023Z,1.27
2018-05-02T04:16:40.531Z,1.00
2018-05-02T04:17:43.025Z,1.30
2018-05-02T04:18:45.496Z,1.37
2018-05-02T04:19:48.016Z,0.90
2018-05-02T04:20:50.507Z,0.90
2018-05-02T04:21:53.027Z,1.20
2018-05-02T04:22:55.524Z,1.70
2018-05-02T04:23:58.015Z,1.50
2018-05-02T04:25:00.500Z,1.40
2018-05-02T04:26:03.008Z,1.10
2018-05-02T04:27:05.498Z,1.30
2018-05-02T04:28:07.980Z,1.40
2018-05-02T04:29:10.450Z,1.20
2018-05-02T04:30:12.971Z,1.10
2018-05-02T04:31:15.474Z,1.30
2018-05-02T04:32:17.962Z,1.13
2018-05-02T04:33:20.434Z,1.50
2018-05-02T04:34:22.920Z,1.20
2018-05-02T04:35:25.405Z,1.17
2018-05-02T04:36:27.986Z,1.20
2018-05-02T04:37:30.545Z,1.00
2018-05-02T04:38:33.037Z,1.40
2018-05-02T04:39:35.529Z,1.20
2018-05-02T04:40:38.021Z,1.40
2018-05-02T04:41:40.491Z,1.23
2018-05-02T04:42:42.989Z,1.00
2018-05-02T04:43:45.481Z,1.20
2018-05-02T04:44:48.057Z,0.90
2018-05-02T04:45:50.546Z,1.00
2018-05-02T04:46:53.026Z,1.33
2018-05-02T04:47:55.522Z,1.20
2018-05-02T04:48:58.013Z,1.33
2018-05-02T04:50:00.496Z,1.03
2018-05-02T04:51:02.989Z,1.30
2018-05-02T04:52:05.466Z,1.10
2018-05-02T04:53:07.996Z,1.23
2018-05-02T04:54:10.470Z,1.23
2018-05-02T04:55:12.946Z,1.17
2018-05-02T04:56:15.432Z,1.13
2018-05-02T04:57:17.902Z,1.10
2018-05-02T04:58:20.424Z,1.30
2018-05-02T04:59:22.918Z,1.10
2018-05-02T05:00:25.409Z,0.90
2018-05-02T05:01:27.888Z,1.30
2018-05-02T05:02:30.381Z,1.10
2018-05-02T05:03:32.888Z,0.90
2018-05-02T05:04:35.395Z,1.20
2018-05-02T05:05:37.907Z,1.33
2018-05-02T05:06:40.488Z,1.33
2018-05-02T05:07:42.901Z,1.30
2018-05-02T05:08:45.413Z,1.20
2018-05-02T05:09:47.895Z,1.30
2018-05-02T05:10:50.416Z,1.20
2018-05-02T05:11:52.905Z,1.10
2018-05-02T05:12:55.406Z,1.33
2018-05-02T05:13:57.904Z,1.43
2018-05-02T05:15:00.389Z,1.27
2018-05-02T05:16:02.873Z,1.10
2018-05-02T05:17:05.344Z,1.53
2018-05-02T05:18:07.856Z,1.03
2018-05-02T05:19:10.378Z,1.20
2018-05-02T05:20:12.872Z,1.20
2018-05-02T05:21:15.342Z,1.10
2018-05-02T05:22:17.843Z,1.17
2018-05-02T05:23:20.322Z,1.03
2018-05-02T05:24:22.824Z,1.07
2018-05-02T05:25:25.306Z,1.10
2018-05-02T05:26:27.794Z,1.07
2018-05-02T05:27:30.337Z,0.93
2018-05-02T05:28:32.918Z,1.00
2018-05-02T05:29:35.421Z,0.97
2018-05-02T05:30:38.037Z,1.20
2018-05-02T05:31:40.529Z,1.40
2018-05-02T05:32:43.062Z,1.10
2018-05-02T05:33:45.539Z,1.17
2018-05-02T05:34:48.035Z,1.13
2018-05-02T05:35:50.502Z,1.30
2018-05-02T05:36:52.989Z,1.13
2018-05-02T05:37:55.460Z,1.17
2018-05-02T05:38:57.953Z,1.10
2018-05-02T05:40:00.457Z,1.10
2018-05-02T05:41:02.961Z,1.13
2018-05-02T05:42:05.439Z,1.00
2018-05-02T05:43:07.929Z,1.30
2018-05-02T05:44:10.418Z,1.10
2018-05-02T05:45:12.961Z,1.17
2018-05-02T05:46:15.444Z,1.00
2018-05-02T05:47:17.932Z,1.20
2018-05-02T05:48:20.444Z,1.10
2018-05-02T05:49:22.936Z,1.10
2018-05-02T05:50:25.458Z,1.23
2018-05-02T05:51:27.948Z,1.00
2018-05-02T05:52:30.443Z,1.30
2018-05-02T05:53:32.945Z,0.90
2018-05-02T05:54:35.457Z,1.10
2018-05-02T05:55:37.985Z,1.00
2018-05-02T05:56:40.494Z,1.10
2018-05-02T05:57:42.978Z,1.20
2018-05-02T05:58:45.471Z,1.00
2018-05-02T05:59:47.964Z,1.00
2018-05-02T06:00:50.630Z,0.97
2018-05-02T06:01:53.055Z,1.20
2018-05-02T06:02:55.658Z,1.10
2018-05-02T06:03:58.132Z,1.10
2018-05-02T06:05:00.674Z,0.97
2018-05-02T06:06:03.240Z,1.10
2018-05-02T06:07:05.744Z,1.07
2018-05-02T06:08:08.215Z,1.30
2018-05-02T06:09:10.683Z,1.30
2018-05-02T06:10:13.170Z,1.10
2018-05-02T06:11:15.675Z,1.20
2018-05-02T06:12:18.157Z,1.20
2018-05-02T06:13:20.659Z,0.90
2018-05-02T06:14:23.210Z,1.13
2018-05-02T06:15:25.698Z,1.10
2018-05-02T06:16:28.225Z,1.10
2018-05-02T06:17:30.709Z,1.00
2018-05-02T06:18:33.244Z,1.00
2018-05-02T06:19:35.729Z,1.00
2018-05-02T06:20:38.223Z,1.00
2018-05-02T06:21:40.713Z,1.73
2018-05-02T06:22:43.182Z,1.33
2018-05-02T06:23:45.692Z,0.90
2018-05-02T06:24:48.177Z,1.10
2018-05-02T06:25:50.746Z,1.00
2018-05-02T06:26:53.243Z,0.90
2018-05-02T06:27:55.771Z,1.07
2018-05-02T06:28:58.331Z,0.97
2018-05-02T06:30:00.806Z,1.13
2018-05-02T06:31:03.311Z,1.00
2018-05-02T06:32:05.828Z,1.13
2018-05-02T06:33:08.332Z,1.23
2018-05-02T06:34:10.835Z,1.10
2018-05-02T06:35:13.381Z,0.90
2018-05-02T06:36:15.851Z,1.10
2018-05-02T06:37:18.334Z,0.87
2018-05-02T06:38:20.825Z,1.00
2018-05-02T06:39:23.302Z,1.07
2018-05-02T06:40:25.877Z,0.90
2018-05-02T06:41:28.388Z,1.10
2018-05-02T06:42:30.903Z,0.90
2018-05-02T06:43:33.483Z,1.00
2018-05-02T06:44:35.920Z,1.10
2018-05-02T06:45:38.410Z,1.17
2018-05-02T06:46:40.896Z,1.27
2018-05-02T06:47:43.389Z,1.30
2018-05-02T06:48:45.879Z,1.40
2018-05-02T06:49:48.383Z,1.40
2018-05-02T06:50:50.872Z,1.53
2018-05-02T06:51:53.361Z,1.40
2018-05-02T06:52:55.861Z,1.77
2018-05-02T06:53:58.344Z,1.90
2018-05-02T06:55:00.829Z,1.77
2018-05-02T06:56:03.324Z,1.80
2018-05-02T06:57:05.824Z,1.97
2018-05-02T06:58:08.295Z,1.90
2018-05-02T06:59:10.766Z,1.40
2018-05-02T07:00:13.257Z,2.20
2018-05-02T07:01:15.749Z,1.90
2018-05-02T07:02:18.267Z,1.80
2018-05-02T07:03:20.769Z,1.80
2018-05-02T07:04:23.267Z,1.80
2018-05-02T07:05:25.793Z,1.90
2018-05-02T07:06:28.297Z,1.53
2018-05-02T07:07:30.907Z,1.30
2018-05-02T07:08:33.382Z,1.83
2018-05-02T07:09:35.887Z,1.60
2018-05-02T07:10:38.385Z,1.60
2018-05-02T07:11:40.944Z,1.83
2018-05-02T07:12:43.452Z,1.90
2018-05-02T07:13:45.936Z,1.57
2018-05-02T07:14:48.437Z,1.70
2018-05-02T07:15:50.929Z,1.97
2018-05-02T07:16:53.438Z,1.60
2018-05-02T07:17:55.967Z,1.70
2018-05-02T07:18:58.455Z,1.93
2018-05-02T07:20:00.955Z,1.60
2018-05-02T07:21:03.432Z,1.70
2018-05-02T07:22:05.931Z,1.60
2018-05-02T07:23:08.426Z,1.60
2018-05-02T07:24:10.902Z,1.40
2018-05-02T07:25:13.404Z,1.43
2018-05-02T07:26:15.909Z,1.63
2018-05-02T07:27:18.393Z,1.87
2018-05-02T07:28:20.984Z,1.50
2018-05-02T07:29:23.468Z,1.90
2018-05-02T07:30:25.953Z,1.93
2018-05-02T07:31:28.430Z,1.30
2018-05-02T07:32:31.053Z,1.73
2018-05-02T07:33:33.569Z,1.50
2018-05-02T07:34:36.038Z,1.30
2018-05-02T07:35:38.525Z,1.90
2018-05-02T07:36:41.013Z,1.53
2018-05-02T07:37:43.514Z,1.63
2018-05-02T07:38:46.051Z,1.70
2018-05-02T07:39:48.528Z,1.53
2018-05-02T07:40:51.010Z,1.30
2018-05-02T07:41:53.511Z,1.67
2018-05-02T07:42:56.108Z,1.70
2018-05-02T07:43:58.609Z,1.70
2018-05-02T07:45:01.184Z,1.77
2018-05-02T07:46:03.756Z,1.50
2018-05-02T07:47:06.263Z,1.80
2018-05-02T07:48:08.803Z,1.60
2018-05-02T07:49:11.286Z,1.40
2018-05-02T07:50:13.773Z,1.60
2018-05-02T07:51:16.275Z,1.50
2018-05-02T07:52:18.789Z,1.67
2018-05-02T07:53:21.279Z,1.77
2018-05-02T07:54:23.797Z,1.87
2018-05-02T07:55:26.316Z,1.60
2018-05-02T07:56:28.866Z,1.90
2018-05-02T07:57:31.297Z,1.83
2018-05-02T07:58:33.785Z,1.70
2018-05-02T07:59:36.305Z,1.90
2018-05-02T08:00:38.778Z,1.90
2018-05-02T08:01:41.280Z,1.87
2018-05-02T08:02:43.769Z,1.97
2018-05-02T08:03:46.252Z,1.47
2018-05-02T08:04:48.775Z,1.77
2018-05-02T08:05:51.242Z,1.90
2018-05-02T08:06:53.742Z,1.97
2018-05-02T08:07:56.229Z,1.50
2018-05-02T08:08:58.740Z,1.40
2018-05-02T08:10:01.316Z,1.60
2018-05-02T08:11:03.812Z,1.40
2018-05-02T08:12:06.321Z,1.63
2018-05-02T08:13:08.828Z,1.97
2018-05-02T08:14:11.339Z,1.80
2018-05-02T08:15:13.852Z,2.00
2018-05-02T08:16:16.396Z,1.77
2018-05-02T08:17:18.871Z,1.70
2018-05-02T08:18:21.414Z,1.63
2018-05-02T08:19:23.916Z,1.70
2018-05-02T08:20:26.425Z,1.87
2018-05-02T08:21:28.988Z,1.40
2018-05-02T08:22:31.477Z,1.50
2018-05-02T08:23:33.948Z,1.40
2018-05-02T08:24:36.428Z,1.40
2018-05-02T08:25:38.927Z,1.40
2018-05-02T08:26:41.487Z,1.80
2018-05-02T08:27:43.924Z,1.83
2018-05-02T08:28:46.410Z,1.83
2018-05-02T08:29:48.896Z,1.70
2018-05-02T08:30:51.398Z,1.73
2018-05-02T08:31:53.907Z,1.53
2018-05-02T08:32:56.491Z,1.90
2018-05-02T08:33:58.994Z,1.57
2018-05-02T08:35:01.551Z,1.60
2018-05-02T08:36:04.051Z,1.47
2018-05-02T08:37:06.551Z,1.70
2018-05-02T08:38:09.023Z,1.67
2018-05-02T08:39:11.508Z,1.80
2018-05-02T08:40:14.007Z,1.50
2018-05-02T08:41:16.493Z,1.57
2018-05-02T08:42:18.958Z,1.30
2018-05-02T08:43:21.467Z,1.60
2018-05-02T08:44:23.974Z,1.60
2018-05-02T08:45:26.492Z,1.50
2018-05-02T08:46:29.004Z,1.40
2018-05-02T08:47:31.498Z,2.00
2018-05-02T08:48:34.050Z,1.33
2018-05-02T08:49:36.518Z,1.70
2018-05-02T08:50:39.032Z,1.47
2018-05-02T08:51:41.520Z,1.63
2018-05-02T08:52:44.023Z,1.80
2018-05-02T08:53:46.517Z,1.67
2018-05-02T08:54:49.018Z,1.60
2018-05-02T08:55:51.516Z,1.63
2018-05-02T08:56:54.007Z,1.50
2018-05-02T08:57:56.501Z,1.83
2018-05-02T08:58:58.993Z,1.90
2018-05-02T09:00:01.490Z,1.30
2018-05-02T09:01:03.975Z,1.63
2018-05-02T09:02:06.479Z,1.87
2018-05-02T09:03:08.969Z,1.70
2018-05-02T09:04:11.438Z,1.40
2018-05-02T09:05:13.963Z,1.80
2018-05-02T09:06:16.447Z,1.60
2018-05-02T09:07:18.955Z,1.37
2018-05-02T09:08:21.469Z,1.90
2018-05-02T09:09:23.957Z,1.60
2018-05-02T09:10:26.460Z,2.13
2018-05-02T09:11:28.988Z,1.70
2018-05-02T09:12:31.482Z,1.60
2018-05-02T09:13:33.955Z,1.87
2018-05-02T09:14:36.459Z,1.80
2018-05-02T09:15:38.968Z,1.70
2018-05-02T09:16:41.454Z,1.97
2018-05-02T09:17:44.041Z,2.00
2018-05-02T09:18:46.550Z,1.63
2018-05-02T09:19:49.022Z,2.00
2018-05-02T09:20:51.532Z,1.90
2018-05-02T09:21:54.051Z,2.13
2018-05-02T09:22:56.559Z,1.47
2018-05-02T09:23:59.053Z,1.70
2018-05-02T09:25:01.569Z,1.80
2018-05-02T09:26:04.127Z,1.80
2018-05-02T09:27:06.688Z,1.80
2018-05-02T09:28:09.251Z,1.83
2018-05-02T09:29:11.809Z,2.10
2018-05-02T09:30:14.296Z,1.67
2018-05-02T09:31:16.793Z,1.63
2018-05-02T09:32:19.286Z,1.70
2018-05-02T09:33:21.775Z,1.70
2018-05-02T09:34:24.267Z,1.87
2018-05-02T09:35:26.767Z,1.80
2018-05-02T09:36:29.267Z,1.90
2018-05-02T09:37:31.784Z,1.70
2018-05-02T09:38:34.250Z,1.73
2018-05-02T09:39:37.081Z,2.27
2018-05-02T09:40:39.627Z,1.73
2018-05-02T09:41:42.439Z,2.00
2018-05-02T09:42:44.930Z,1.63
2018-05-02T09:43:47.444Z,1.70
2018-05-02T09:44:49.947Z,1.83
2018-05-02T09:45:52.465Z,1.87
2018-05-02T09:46:55.024Z,2.00
2018-05-02T09:47:57.581Z,2.20
2018-05-02T09:49:00.147Z,2.10
2018-05-02T09:50:02.634Z,2.20
2018-05-02T09:51:05.124Z,2.10
2018-05-02T09:52:07.618Z,1.70
2018-05-02T09:53:10.105Z,2.10
2018-05-02T09:54:12.611Z,2.00
2018-05-02T09:55:15.079Z,1.90
2018-05-02T09:56:17.550Z,1.90
2018-05-02T09:57:20.033Z,2.00
2018-05-02T09:58:22.532Z,2.37
2018-05-02T09:59:25.035Z,1.67
2018-05-02T10:00:30.418Z,2.13
2018-05-02T10:01:32.886Z,1.80
2018-05-02T10:02:35.391Z,2.00
2018-05-02T10:03:37.896Z,2.00
2018-05-02T10:04:40.388Z,2.20
2018-05-02T10:05:42.946Z,2.27
2018-05-02T10:06:45.433Z,2.43
2018-05-02T10:07:47.967Z,1.97
2018-05-02T10:08:50.466Z,2.23
2018-05-02T10:09:52.985Z,2.50
2018-05-02T10:10:55.468Z,2.03
2018-05-02T10:11:57.957Z,2.30
2018-05-02T10:13:00.458Z,2.00
2018-05-02T10:14:02.961Z,2.10
2018-05-02T10:15:05.459Z,2.10
2018-05-02T10:16:07.949Z,1.90
2018-05-02T10:17:10.433Z,2.40
2018-05-02T10:18:12.939Z,1.90
2018-05-02T10:19:15.581Z,1.87
2018-05-02T10:20:18.084Z,1.83
2018-05-02T10:21:20.574Z,2.10
2018-05-02T10:22:23.043Z,2.10
2018-05-02T10:23:25.541Z,1.90
2018-05-02T10:24:28.045Z,2.40
2018-05-02T10:25:30.560Z,2.30
2018-05-02T10:26:33.037Z,2.20
2018-05-02T10:27:35.541Z,2.30
2018-05-02T10:28:38.032Z,2.13
2018-05-02T10:29:40.523Z,2.00
2018-05-02T10:30:43.024Z,2.27
2018-05-02T10:31:45.503Z,2.17
2018-05-02T10:32:48.080Z,1.60
2018-05-02T10:33:50.564Z,2.37
2018-05-02T10:34:53.083Z,2.47
2018-05-02T10:35:55.558Z,2.13
2018-05-02T10:36:58.157Z,2.50
2018-05-02T10:38:00.592Z,2.20
2018-05-02T10:39:03.077Z,1.90
2018-05-02T10:40:05.586Z,2.30
2018-05-02T10:41:08.115Z,2.13
2018-05-02T10:42:10.603Z,2.23
2018-05-02T10:43:13.118Z,2.07
2018-05-02T10:44:15.599Z,2.53
2018-05-02T10:45:18.104Z,2.20
2018-05-02T10:46:20.613Z,2.03
2018-05-02T10:47:23.082Z,2.20
2018-05-02T10:48:25.569Z,2.60
2018-05-02T10:49:28.075Z,1.90
2018-05-02T10:50:30.744Z,1.90
2018-05-02T10:51:33.189Z,2.30
2018-05-02T10:52:35.663Z,2.30
2018-05-02T10:53:38.173Z,2.20
2018-05-02T10:54:40.665Z,2.30
2018-05-02T10:55:43.192Z,2.80
2018-05-02T10:56:45.692Z,2.77
2018-05-02T10:57:48.336Z,3.13
2018-05-02T10:58:50.897Z,2.80
2018-05-02T10:59:53.487Z,3.47
2018-05-02T11:00:56.061Z,2.80
2018-05-02T11:01:58.613Z,2.90
2018-05-02T11:03:01.087Z,2.80
2018-05-02T11:04:03.563Z,2.93
2018-05-02T11:05:06.067Z,3.27
2018-05-02T11:06:08.590Z,3.00
2018-05-02T11:07:11.076Z,2.73
2018-05-02T11:08:13.548Z,3.03
2018-05-02T11:09:16.036Z,3.30
2018-05-02T11:10:18.505Z,3.27
2018-05-02T11:11:21.008Z,3.43
2018-05-02T11:12:23.514Z,3.40
2018-05-02T11:13:26.001Z,3.13
2018-05-02T11:14:28.504Z,3.07
2018-05-02T11:15:31.080Z,3.50
2018-05-02T11:16:33.607Z,3.73
2018-05-02T11:17:36.112Z,3.33
2018-05-02T11:18:38.597Z,2.77
2018-05-02T11:19:41.130Z,3.70
2018-05-02T11:20:43.692Z,2.90
2018-05-02T11:21:46.252Z,3.07
2018-05-02T11:22:48.752Z,3.20
2018-05-02T11:23:51.256Z,3.63
2018-05-02T11:24:53.735Z,3.20
2018-05-02T11:25:56.225Z,3.17
2018-05-02T11:26:58.719Z,3.30
2018-05-02T11:28:01.197Z,3.23
2018-05-02T11:29:03.681Z,3.10
2018-05-02T11:30:06.187Z,3.40
2018-05-02T11:31:08.688Z,2.63
2018-05-02T11:32:11.188Z,3.50
2018-05-02T11:33:13.687Z,2.93
2018-05-02T11:34:16.235Z,3.33
2018-05-02T11:35:18.717Z,3.30
2018-05-02T11:36:21.205Z,3.43
2018-05-02T11:37:23.723Z,3.07
2018-05-02T11:38:26.208Z,2.60
2018-05-02T11:39:28.679Z,3.27
2018-05-02T11:40:31.189Z,3.10
2018-05-02T11:41:33.674Z,3.60
2018-05-02T11:42:36.174Z,2.77
2018-05-02T11:43:38.749Z,3.10
2018-05-02T11:44:41.238Z,2.70
2018-05-02T11:45:43.856Z,2.60
2018-05-02T11:46:46.359Z,3.03
2018-05-02T11:47:48.864Z,3.07
2018-05-02T11:48:51.335Z,2.63
2018-05-02T11:49:53.836Z,2.80
2018-05-02T11:50:56.343Z,2.83
2018-05-02T11:51:58.873Z,3.30
2018-05-02T11:53:01.516Z,3.60
2018-05-02T11:54:04.072Z,3.13
2018-05-02T11:55:06.579Z,2.80
2018-05-02T11:56:09.067Z,2.97
2018-05-02T11:57:11.571Z,3.27
2018-05-02T11:58:14.077Z,2.93
2018-05-02T11:59:16.546Z,3.07
2018-05-02T12:00:19.022Z,2.80
2018-05-02T12:01:21.509Z,3.40
2018-05-02T12:02:24.018Z,3.23
2018-05-02T12:03:26.552Z,3.10
2018-05-02T12:04:29.022Z,3.53
2018-05-02T12:05:31.523Z,3.10
2018-05-02T12:06:34.110Z,3.20
2018-05-02T12:07:36.747Z,3.13
2018-05-02T12:08:39.308Z,2.70
2018-05-02T12:09:41.811Z,3.50
2018-05-02T12:10:44.300Z,3.43
2018-05-02T12:11:46.788Z,2.93
2018-05-02T12:12:49.254Z,3.60
2018-05-02T12:13:51.795Z,2.90
2018-05-02T12:14:54.284Z,3.67
2018-05-02T12:15:56.771Z,3.23
2018-05-02T12:16:59.248Z,3.33
2018-05-02T12:18:01.798Z,3.63
2018-05-02T12:19:04.282Z,3.33
2018-05-02T12:20:06.771Z,3.40
2018-05-02T12:21:09.249Z,3.90
2018-05-02T12:22:11.736Z,3.20
2018-05-02T12:23:14.219Z,3.43
2018-05-02T12:24:16.725Z,3.87
2018-05-02T12:25:19.217Z,4.93
2018-05-02T12:26:21.704Z,4.53
2018-05-02T12:27:24.192Z,4.70
2018-05-02T12:28:26.715Z,4.40
2018-05-02T12:29:29.262Z,4.30
2018-05-02T12:30:31.840Z,4.20
2018-05-02T12:31:34.326Z,4.57
2018-05-02T12:32:36.812Z,4.60
2018-05-02T12:33:39.286Z,5.10
2018-05-02T12:34:41.839Z,5.40
2018-05-02T12:35:44.310Z,4.97
2018-05-02T12:36:46.793Z,4.83
2018-05-02T12:37:49.284Z,5.33
2018-05-02T12:38:51.780Z,4.80
2018-05-02T12:39:54.280Z,4.80
2018-05-02T12:40:56.761Z,5.00
2018-05-02T12:41:59.243Z,4.90
2018-05-02T12:43:01.710Z,4.80
2018-05-02T12:44:04.194Z,4.60
2018-05-02T12:45:06.705Z,4.30
2018-05-02T12:46:09.193Z,4.50
2018-05-02T12:47:11.680Z,4.70
2018-05-02T12:48:14.232Z,4.80
2018-05-02T12:49:16.797Z,4.20
2018-05-02T12:50:19.319Z,4.60
2018-05-02T12:51:21.811Z,4.87
2018-05-02T12:52:24.300Z,4.80
2018-05-02T12:53:26.766Z,4.20
2018-05-02T12:54:29.253Z,4.60
2018-05-02T12:55:31.819Z,4.77
2018-05-02T12:56:34.279Z,4.37
2018-05-02T12:57:36.769Z,4.43
2018-05-02T12:58:39.256Z,4.13
2018-05-02T12:59:41.752Z,4.60
2018-05-02T13:00:44.280Z,4.73
2018-05-02T13:01:46.796Z,4.50
2018-05-02T13:02:49.285Z,4.60
2018-05-02T13:03:51.776Z,4.30
2018-05-02T13:04:54.279Z,4.73
2018-05-02T13:05:56.805Z,4.40
2018-05-02T13:06:59.305Z,4.30
2018-05-02T13:08:01.811Z,4.90
2018-05-02T13:09:04.323Z,4.00
2018-05-02T13:10:06.792Z,4.60
2018-05-02T13:11:09.325Z,4.60
2018-05-02T13:12:11.794Z,3.97
2018-05-02T13:13:14.445Z,4.73
2018-05-02T13:14:16.933Z,4.60
2018-05-02T13:15:19.417Z,3.77
2018-05-02T13:16:21.935Z,4.50
2018-05-02T13:17:24.407Z,4.60
2018-05-02T13:18:26.939Z,4.50
2018-05-02T13:19:29.499Z,4.23
2018-05-02T13:20:32.062Z,4.67
2018-05-02T13:21:34.620Z,4.23
2018-05-02T13:22:37.205Z,4.23
2018-05-02T13:23:39.888Z,4.43
2018-05-02T13:24:42.403Z,4.60
2018-05-02T13:25:44.982Z,4.73
2018-05-02T13:26:47.471Z,4.23
2018-05-02T13:27:49.982Z,4.13
2018-05-02T13:28:52.468Z,4.50
2018-05-02T13:29:54.975Z,5.13
2018-05-02T13:30:57.478Z,4.60
2018-05-02T13:31:59.974Z,4.27
2018-05-02T13:33:02.523Z,4.30
2018-05-02T13:34:05.035Z,4.30
2018-05-02T13:35:07.526Z,4.57
2018-05-02T13:36:10.040Z,4.70
2018-05-02T13:37:12.563Z,4.43
2018-05-02T13:38:15.049Z,4.50
2018-05-02T13:39:17.538Z,4.40
2018-05-02T13:40:20.106Z,4.50
2018-05-02T13:41:22.591Z,4.00
2018-05-02T13:42:25.086Z,5.07
2018-05-02T13:43:27.598Z,3.83
2018-05-02T13:44:30.124Z,4.70
2018-05-02T13:45:32.605Z,5.07
2018-05-02T13:46:35.112Z,4.53
2018-05-02T13:47:37.610Z,4.70
2018-05-02T13:48:40.117Z,3.70
2018-05-02T13:49:42.609Z,4.27
2018-05-02T13:50:45.183Z,4.53
2018-05-02T13:51:47.670Z,4.43
2018-05-02T13:52:50.176Z,4.60
2018-05-02T13:53:52.679Z,4.00
2018-05-02T13:54:55.170Z,3.80